sensor_id;sensor_type;location;lat;lon;timestamp;pressure;altitude;pressure_sealevel;temperature;humidity
21623;BME280;10973;46.706;12.340;2023-05-22T00:01:16;87485.31;;;12.19;57.94
21623;BME280;10973;46.706;12.340;2023-05-22T00:03:44;87484.19;;;12.16;57.93
21623;BME280;10973;46.706;12.340;2023-05-22T00:06:12;87483.06;;;12.10;58.12
21623;BME280;10973;46.706;12.340;2023-05-22T00:08:39;87479.28;;;12.08;57.82
21623;BME280;10973;46.706;12.340;2023-05-22T00:11:07;87483.03;;;12.07;57.25
21623;BME280;10973;46.706;12.340;2023-05-22T00:13:34;87477.38;;;12.01;57.35
21623;BME280;10973;46.706;12.340;2023-05-22T00:16:02;87475.47;;;11.98;57.89
21623;BME280;10973;46.706;12.340;2023-05-22T00:19:22;87470.56;;;11.90;57.98
21623;BME280;10973;46.706;12.340;2023-05-22T00:22:01;87464.53;;;11.79;58.05
21623;BME280;10973;46.706;12.340;2023-05-22T00:24:28;87469.03;;;11.78;57.35
21623;BME280;10973;46.706;12.340;2023-05-22T00:26:56;87463.72;;;11.75;57.41
21623;BME280;10973;46.706;12.340;2023-05-22T00:29:24;87462.59;;;11.69;57.27
21623;BME280;10973;46.706;12.340;2023-05-22T00:31:51;87469.72;;;11.65;57.76
21623;BME280;10973;46.706;12.340;2023-05-22T00:34:19;87464.47;;;11.68;57.38
21623;BME280;10973;46.706;12.340;2023-05-22T00:36:46;87470.84;;;11.64;57.31
21623;BME280;10973;46.706;12.340;2023-05-22T00:39:13;87471.97;;;11.56;57.56
21623;BME280;10973;46.706;12.340;2023-05-22T00:41:41;87473.84;;;11.52;57.45
21623;BME280;10973;46.706;12.340;2023-05-22T00:44:08;87466.66;;;11.48;57.56
21623;BME280;10973;46.706;12.340;2023-05-22T00:46:36;87463.66;;;11.46;57.33
21623;BME280;10973;46.706;12.340;2023-05-22T00:49:04;87464.38;;;11.43;56.98
21623;BME280;10973;46.706;12.340;2023-05-22T00:51:31;87457.19;;;11.37;57.23
21623;BME280;10973;46.706;12.340;2023-05-22T00:53:59;87457.19;;;11.33;56.82
21623;BME280;10973;46.706;12.340;2023-05-22T00:56:27;87459.44;;;11.31;56.95
21623;BME280;10973;46.706;12.340;2023-05-22T00:58:55;87465.47;;;11.32;57.20
21623;BME280;10973;46.706;12.340;2023-05-22T01:01:23;87459.81;;;11.26;57.38
21623;BME280;10973;46.706;12.340;2023-05-22T01:03:51;87462.03;;;11.24;57.33
21623;BME280;10973;46.706;12.340;2023-05-22T01:06:19;87468.84;;;11.22;57.12
21623;BME280;10973;46.706;12.340;2023-05-22T01:08:47;87462.03;;;11.21;57.02
21623;BME280;10973;46.706;12.340;2023-05-22T01:11:33;87472.59;;;11.21;57.31
21623;BME280;10973;46.706;12.340;2023-05-22T01:14:21;87466.56;;;11.17;57.25
21623;BME280;10973;46.706;12.340;2023-05-22T01:20:24;87464.22;;;11.05;57.27
21623;BME280;10973;46.706;12.340;2023-05-22T01:26:38;87467.97;;;11.00;57.28
21623;BME280;10973;46.706;12.340;2023-05-22T01:29:41;87471.00;;;11.02;57.56
21623;BME280;10973;46.706;12.340;2023-05-22T01:32:15;87475.50;;;11.02;57.25
21623;BME280;10973;46.706;12.340;2023-05-22T01:34:46;87462.69;;;11.00;57.26
21623;BME280;10973;46.706;12.340;2023-05-22T01:37:17;87466.41;;;10.89;57.54
21623;BME280;10973;46.706;12.340;2023-05-22T01:39:46;87470.94;;;10.92;57.08
21623;BME280;10973;46.706;12.340;2023-05-22T01:42:14;87475.47;;;10.91;56.89
21623;BME280;10973;46.706;12.340;2023-05-22T01:44:42;87470.91;;;10.85;56.70
21623;BME280;10973;46.706;12.340;2023-05-22T01:47:09;87479.19;;;10.83;56.86
21623;BME280;10973;46.706;12.340;2023-05-22T01:49:37;87476.91;;;10.82;56.99
21623;BME280;10973;46.706;12.340;2023-05-22T01:52:19;87471.63;;;10.78;56.96
21623;BME280;10973;46.706;12.340;2023-05-22T01:55:01;87474.66;;;10.77;56.94
21623;BME280;10973;46.706;12.340;2023-05-22T01:58:11;87478.00;;;10.73;56.82
21623;BME280;10973;46.706;12.340;2023-05-22T02:00:44;87475.34;;;10.70;56.82
21623;BME280;10973;46.706;12.340;2023-05-22T02:03:22;87478.72;;;10.67;56.65
21623;BME280;10973;46.706;12.340;2023-05-22T02:05:53;87477.53;;;10.61;56.59
21623;BME280;10973;46.706;12.340;2023-05-22T02:08:22;87474.50;;;10.55;56.77
21623;BME280;10973;46.706;12.340;2023-05-22T02:10:53;87479.75;;;10.52;56.63
21623;BME280;10973;46.706;12.340;2023-05-22T02:13:22;87477.84;;;10.49;56.72
21623;BME280;10973;46.706;12.340;2023-05-22T02:15:50;87480.44;;;10.45;56.59
21623;BME280;10973;46.706;12.340;2023-05-22T02:18:18;87472.50;;;10.38;56.63
21623;BME280;10973;46.706;12.340;2023-05-22T02:20:46;87472.09;;;10.36;56.63
21623;BME280;10973;46.706;12.340;2023-05-22T02:23:14;87473.25;;;10.39;56.92
21623;BME280;10973;46.706;12.340;2023-05-22T02:25:41;87473.63;;;10.37;57.12
21623;BME280;10973;46.706;12.340;2023-05-22T02:28:09;87463.84;;;10.38;57.24
21623;BME280;10973;46.706;12.340;2023-05-22T02:30:37;87469.09;;;10.34;57.13
21623;BME280;10973;46.706;12.340;2023-05-22T02:33:05;87471.72;;;10.34;57.11
21623;BME280;10973;46.706;12.340;2023-05-22T02:35:33;87467.56;;;10.30;56.99
21623;BME280;10973;46.706;12.340;2023-05-22T02:38:01;87471.72;;;10.31;56.86
21623;BME280;10973;46.706;12.340;2023-05-22T02:40:28;87467.53;;;10.26;56.67
21623;BME280;10973;46.706;12.340;2023-05-22T02:42:56;87476.19;;;10.27;56.73
21623;BME280;10973;46.706;12.340;2023-05-22T02:45:24;87474.28;;;10.24;56.57
21623;BME280;10973;46.706;12.340;2023-05-22T02:47:51;87479.16;;;10.22;56.83
21623;BME280;10973;46.706;12.340;2023-05-22T02:50:28;87467.81;;;10.18;56.78
21623;BME280;10973;46.706;12.340;2023-05-22T02:52:56;87478.72;;;10.13;56.72
21623;BME280;10973;46.706;12.340;2023-05-22T02:55:24;87485.78;;;10.08;56.78
21623;BME280;10973;46.706;12.340;2023-05-22T02:57:51;87481.66;;;10.07;56.62
21623;BME280;10973;46.706;12.340;2023-05-22T03:00:19;87481.59;;;10.04;56.70
21623;BME280;10973;46.706;12.340;2023-05-22T03:02:47;87479.34;;;10.02;56.78
21623;BME280;10973;46.706;12.340;2023-05-22T03:05:15;87481.59;;;10.00;56.77
21623;BME280;10973;46.706;12.340;2023-05-22T03:07:44;87479.34;;;9.99;56.99
21623;BME280;10973;46.706;12.340;2023-05-22T03:10:15;87484.59;;;9.99;56.94
21623;BME280;10973;46.706;12.340;2023-05-22T03:13:02;87483.06;;;9.94;56.79
21623;BME280;10973;46.706;12.340;2023-05-22T03:15:29;87486.03;;;9.93;56.51
21623;BME280;10973;46.706;12.340;2023-05-22T03:17:57;87495.06;;;9.92;56.43
21623;BME280;10973;46.706;12.340;2023-05-22T03:20:25;87491.59;;;9.84;56.30
21623;BME280;10973;46.706;12.340;2023-05-22T03:22:53;87488.56;;;9.82;56.54
21623;BME280;10973;46.706;12.340;2023-05-22T03:25:20;87491.19;;;9.79;56.60
21623;BME280;10973;46.706;12.340;2023-05-22T03:27:48;87482.16;;;9.80;56.66
21623;BME280;10973;46.706;12.340;2023-05-22T03:30:16;87479.13;;;9.78;56.78
21623;BME280;10973;46.706;12.340;2023-05-22T03:32:44;87479.50;;;9.76;56.88
21623;BME280;10973;46.706;12.340;2023-05-22T03:35:12;87477.22;;;9.75;56.77
21623;BME280;10973;46.706;12.340;2023-05-22T03:37:39;87480.59;;;9.72;56.79
21623;BME280;10973;46.706;12.340;2023-05-22T03:40:07;87479.06;;;9.71;57.08
21623;BME280;10973;46.706;12.340;2023-05-22T03:42:35;87482.84;;;9.70;57.06
21623;BME280;10973;46.706;12.340;2023-05-22T03:45:03;87482.00;;;9.66;56.72
21623;BME280;10973;46.706;12.340;2023-05-22T03:47:31;87484.25;;;9.64;56.72
21623;BME280;10973;46.706;12.340;2023-05-22T03:49:58;87480.84;;;9.60;56.74
21623;BME280;10973;46.706;12.340;2023-05-22T03:52:26;87487.94;;;9.56;56.76
21623;BME280;10973;46.706;12.340;2023-05-22T03:54:54;87474.03;;;9.55;56.82
21623;BME280;10973;46.706;12.340;2023-05-22T03:57:22;87477.03;;;9.54;57.05
21623;BME280;10973;46.706;12.340;2023-05-22T03:59:49;87478.13;;;9.53;57.06
21623;BME280;10973;46.706;12.340;2023-05-22T04:02:17;87477.03;;;9.54;57.15
21623;BME280;10973;46.706;12.340;2023-05-22T04:04:46;87475.56;;;9.56;57.05
21623;BME280;10973;46.706;12.340;2023-05-22T04:07:13;87482.72;;;9.59;57.21
21623;BME280;10973;46.706;12.340;2023-05-22T04:09:41;87480.81;;;9.56;57.20
21623;BME280;10973;46.706;12.340;2023-05-22T04:12:09;87483.78;;;9.55;57.04
21623;BME280;10973;46.706;12.340;2023-05-22T04:14:37;87477.75;;;9.54;57.10
21623;BME280;10973;46.706;12.340;2023-05-22T04:17:05;87478.81;;;9.46;57.37
21623;BME280;10973;46.706;12.340;2023-05-22T04:19:33;87475.09;;;9.47;57.39
21623;BME280;10973;46.706;12.340;2023-05-22T04:22:00;87478.06;;;9.46;57.27
21623;BME280;10973;46.706;12.340;2023-05-22T04:24:28;87481.47;;;9.50;57.28
21623;BME280;10973;46.706;12.340;2023-05-22T04:26:56;87483.72;;;9.48;57.50
21623;BME280;10973;46.706;12.340;2023-05-22T04:29:23;87486.75;;;9.50;57.47
21623;BME280;10973;46.706;12.340;2023-05-22T04:31:51;87478.91;;;9.53;57.66
21623;BME280;10973;46.706;12.340;2023-05-22T04:34:19;87477.28;;;9.42;57.84
21623;BME280;10973;46.706;12.340;2023-05-22T04:36:47;87472.00;;;9.42;57.80
21623;BME280;10973;46.706;12.340;2023-05-22T04:39:15;87467.19;;;9.47;57.73
21623;BME280;10973;46.706;12.340;2023-05-22T04:41:42;87474.34;;;9.50;57.55
21623;BME280;10973;46.706;12.340;2023-05-22T04:44:10;87475.13;;;9.51;57.76
21623;BME280;10973;46.706;12.340;2023-05-22T04:46:38;87484.47;;;9.48;57.93
21623;BME280;10973;46.706;12.340;2023-05-22T04:49:05;87480.00;;;9.52;58.05
21623;BME280;10973;46.706;12.340;2023-05-22T04:51:33;87482.28;;;9.54;58.02
21623;BME280;10973;46.706;12.340;2023-05-22T04:54:01;87475.91;;;9.55;58.10
21623;BME280;10973;46.706;12.340;2023-05-22T04:56:29;87481.53;;;9.53;57.89
21623;BME280;10973;46.706;12.340;2023-05-22T04:59:03;87480.75;;;9.53;57.85
21623;BME280;10973;46.706;12.340;2023-05-22T05:01:31;87474.00;;;9.52;57.98
21623;BME280;10973;46.706;12.340;2023-05-22T05:04:02;87469.84;;;9.51;58.11
21623;BME280;10973;46.706;12.340;2023-05-22T05:06:30;87463.13;;;9.53;58.21
21623;BME280;10973;46.706;12.340;2023-05-22T05:08:58;87464.28;;;9.59;58.01
21623;BME280;10973;46.706;12.340;2023-05-22T05:11:25;87463.13;;;9.57;58.24
21623;BME280;10973;46.706;12.340;2023-05-22T05:13:53;87455.28;;;9.60;58.27
21623;BME280;10973;46.706;12.340;2023-05-22T05:16:24;87460.56;;;9.60;58.31
21623;BME280;10973;46.706;12.340;2023-05-22T05:18:52;87459.41;;;9.61;58.57
21623;BME280;10973;46.706;12.340;2023-05-22T05:21:20;87454.94;;;9.62;58.66
21623;BME280;10973;46.706;12.340;2023-05-22T05:23:48;87448.16;;;9.61;58.82
21623;BME280;10973;46.706;12.340;2023-05-22T05:26:15;87455.38;;;9.67;58.81
21623;BME280;10973;46.706;12.340;2023-05-22T05:28:43;87452.75;;;9.71;58.87
21623;BME280;10973;46.706;12.340;2023-05-22T05:31:26;87450.19;;;9.78;58.92
21623;BME280;10973;46.706;12.340;2023-05-22T05:33:54;87441.63;;;9.88;58.81
21623;BME280;10973;46.706;12.340;2023-05-22T05:36:23;87439.47;;;9.97;58.88
21623;BME280;10973;46.706;12.340;2023-05-22T05:38:51;87447.03;;;10.05;59.00
21623;BME280;10973;46.706;12.340;2023-05-22T05:41:19;87442.25;;;10.18;58.89
21623;BME280;10973;46.706;12.340;2023-05-22T05:43:47;87442.34;;;10.29;58.78
21623;BME280;10973;46.706;12.340;2023-05-22T05:46:15;87436.03;;;10.40;58.93
21623;BME280;10973;46.706;12.340;2023-05-22T05:48:43;87442.84;;;10.52;59.05
21623;BME280;10973;46.706;12.340;2023-05-22T05:51:10;87438.00;;;10.61;58.78
21623;BME280;10973;46.706;12.340;2023-05-22T05:53:38;87438.44;;;10.70;58.74
21623;BME280;10973;46.706;12.340;2023-05-22T05:56:07;87432.47;;;10.80;58.59
21623;BME280;10973;46.706;12.340;2023-05-22T05:58:35;87437.78;;;10.91;58.39
21623;BME280;10973;46.706;12.340;2023-05-22T06:01:03;87430.34;;;11.03;58.25
21623;BME280;10973;46.706;12.340;2023-05-22T06:03:31;87434.13;;;11.13;58.42
21623;BME280;10973;46.706;12.340;2023-05-22T06:05:58;87434.56;;;11.25;58.91
21623;BME280;10973;46.706;12.340;2023-05-22T06:08:26;87439.50;;;11.41;58.74
21623;BME280;10973;46.706;12.340;2023-05-22T06:10:54;87436.13;;;11.51;58.83
21623;BME280;10973;46.706;12.340;2023-05-22T06:13:22;87440.69;;;11.65;58.84
21623;BME280;10973;46.706;12.340;2023-05-22T06:15:49;87437.72;;;11.77;58.72
21623;BME280;10973;46.706;12.340;2023-05-22T06:18:17;87429.44;;;11.89;58.90
21623;BME280;10973;46.706;12.340;2023-05-22T06:20:45;87422.28;;;12.00;58.64
21623;BME280;10973;46.706;12.340;2023-05-22T06:23:14;87424.56;;;12.12;58.60
21623;BME280;10973;46.706;12.340;2023-05-22T06:25:42;87412.84;;;12.24;58.29
21623;BME280;10973;46.706;12.340;2023-05-22T06:28:09;87422.28;;;12.35;57.75
21623;BME280;10973;46.706;12.340;2023-05-22T06:30:37;87415.84;;;12.43;57.43
21623;BME280;10973;46.706;12.340;2023-05-22T06:33:07;87415.09;;;12.53;56.82
21623;BME280;10973;46.706;12.340;2023-05-22T06:35:34;87415.84;;;12.64;56.07
21623;BME280;10973;46.706;12.340;2023-05-22T06:38:02;87414.31;;;12.70;55.28
21623;BME280;10973;46.706;12.340;2023-05-22T06:40:30;87416.94;;;12.77;55.45
21623;BME280;10973;46.706;12.340;2023-05-22T06:42:58;87415.78;;;12.85;55.69
21623;BME280;10973;46.706;12.340;2023-05-22T06:45:25;87412.75;;;12.90;55.57
21623;BME280;10973;46.706;12.340;2023-05-22T06:47:53;87415.72;;;13.00;55.65
21623;BME280;10973;46.706;12.340;2023-05-22T06:50:21;87404.41;;;13.06;55.74
21623;BME280;10973;46.706;12.340;2023-05-22T06:52:49;87410.06;;;13.12;55.71
21623;BME280;10973;46.706;12.340;2023-05-22T06:55:17;87409.28;;;13.22;55.42
21623;BME280;10973;46.706;12.340;2023-05-22T06:57:45;87402.81;;;13.30;55.28
21623;BME280;10973;46.706;12.340;2023-05-22T07:00:12;87399.78;;;13.31;55.00
21623;BME280;10973;46.706;12.340;2023-05-22T07:02:40;87409.94;;;13.43;54.71
21623;BME280;10973;46.706;12.340;2023-05-22T07:05:31;87409.16;;;13.50;54.41
21623;BME280;10973;46.706;12.340;2023-05-22T07:08:22;87405.69;;;13.60;54.60
21623;BME280;10973;46.706;12.340;2023-05-22T07:10:50;87403.78;;;13.64;54.96
21623;BME280;10973;46.706;12.340;2023-05-22T07:13:18;87398.44;;;13.68;54.65
21623;BME280;10973;46.706;12.340;2023-05-22T07:15:45;87404.47;;;13.75;54.47
21623;BME280;10973;46.706;12.340;2023-05-22T07:18:13;87402.97;;;13.74;55.31
21623;BME280;10973;46.706;12.340;2023-05-22T07:20:40;87404.06;;;13.80;55.01
21623;BME280;10973;46.706;12.340;2023-05-22T07:23:08;87407.75;;;13.97;54.30
21623;BME280;10973;46.706;12.340;2023-05-22T07:25:35;87403.88;;;14.08;53.60
21623;BME280;10973;46.706;12.340;2023-05-22T07:28:03;87404.94;;;14.18;52.61
21623;BME280;10973;46.706;12.340;2023-05-22T07:30:30;87401.84;;;14.30;52.28
21623;BME280;10973;46.706;12.340;2023-05-22T07:32:58;87400.66;;;14.38;51.80
21623;BME280;10973;46.706;12.340;2023-05-22T07:35:25;87404.00;;;14.46;51.20
21623;BME280;10973;46.706;12.340;2023-05-22T07:37:52;87403.53;;;14.54;51.07
21623;BME280;10973;46.706;12.340;2023-05-22T07:40:20;87407.28;;;14.60;51.23
21623;BME280;10973;46.706;12.340;2023-05-22T07:42:48;87400.78;;;14.68;51.88
21623;BME280;10973;46.706;12.340;2023-05-22T07:45:15;87398.81;;;14.76;51.37
21623;BME280;10973;46.706;12.340;2023-05-22T07:47:43;87393.09;;;14.81;51.26
21623;BME280;10973;46.706;12.340;2023-05-22T07:50:10;87399.06;;;14.88;51.23
21623;BME280;10973;46.706;12.340;2023-05-22T07:52:38;87386.91;;;14.91;49.96
21623;BME280;10973;46.706;12.340;2023-05-22T07:55:06;87378.44;;;15.03;49.62
21623;BME280;10973;46.706;12.340;2023-05-22T07:57:34;87381.75;;;15.11;49.62
21623;BME280;10973;46.706;12.340;2023-05-22T08:00:03;87378.25;;;15.21;49.91
21623;BME280;10973;46.706;12.340;2023-05-22T08:02:30;87375.91;;;15.26;49.21
21623;BME280;10973;46.706;12.340;2023-05-22T08:04:58;87367.50;;;15.31;47.49
21623;BME280;10973;46.706;12.340;2023-05-22T08:07:25;87373.53;;;15.35;46.34
21623;BME280;10973;46.706;12.340;2023-05-22T08:09:52;87371.19;;;15.41;45.28
21623;BME280;10973;46.706;12.340;2023-05-22T08:12:20;87368.81;;;15.50;45.70
21623;BME280;10973;46.706;12.340;2023-05-22T08:14:47;87371.38;;;15.57;46.48
21623;BME280;10973;46.706;12.340;2023-05-22T08:17:15;87365.63;;;15.62;47.29
21623;BME280;10973;46.706;12.340;2023-05-22T08:19:42;87368.50;;;15.75;47.35
21623;BME280;10973;46.706;12.340;2023-05-22T08:22:10;87364.53;;;15.86;47.20
21623;BME280;10973;46.706;12.340;2023-05-22T08:24:38;87366.34;;;15.93;47.39
21623;BME280;10973;46.706;12.340;2023-05-22T08:27:05;87360.53;;;16.01;46.25
21623;BME280;10973;46.706;12.340;2023-05-22T08:29:32;87363.38;;;16.14;45.39
21623;BME280;10973;46.706;12.340;2023-05-22T08:32:00;87363.28;;;16.21;44.48
21623;BME280;10973;46.706;12.340;2023-05-22T08:34:27;87365.06;;;16.27;43.35
21623;BME280;10973;46.706;12.340;2023-05-22T08:36:55;87358.09;;;16.37;41.65
21623;BME280;10973;46.706;12.340;2023-05-22T08:39:22;87355.03;;;16.38;42.81
21623;BME280;10973;46.706;12.340;2023-05-22T08:41:50;87355.66;;;16.46;42.29
21623;BME280;10973;46.706;12.340;2023-05-22T08:44:18;87351.44;;;16.49;42.12
21623;BME280;10973;46.706;12.340;2023-05-22T08:46:45;87352.16;;;16.53;40.94
21623;BME280;10973;46.706;12.340;2023-05-22T08:49:15;87347.72;;;16.69;41.26
21623;BME280;10973;46.706;12.340;2023-05-22T08:51:47;87344.06;;;16.83;41.83
21623;BME280;10973;46.706;12.340;2023-05-22T08:54:20;87333.88;;;16.97;42.53
21623;BME280;10973;46.706;12.340;2023-05-22T08:56:49;87335.19;;;17.09;42.10
21623;BME280;10973;46.706;12.340;2023-05-22T08:59:23;87337.81;;;17.13;43.11
21623;BME280;10973;46.706;12.340;2023-05-22T09:01:52;87340.25;;;17.23;42.35
21623;BME280;10973;46.706;12.340;2023-05-22T09:04:21;87339.38;;;17.30;41.95
21623;BME280;10973;46.706;12.340;2023-05-22T09:06:51;87336.22;;;17.35;41.31
21623;BME280;10973;46.706;12.340;2023-05-22T09:09:19;87331.25;;;17.37;41.09
21623;BME280;10973;46.706;12.340;2023-05-22T09:11:46;87342.09;;;17.46;40.95
21623;BME280;10973;46.706;12.340;2023-05-22T09:14:14;87337.75;;;17.55;41.19
21623;BME280;10973;46.706;12.340;2023-05-22T09:16:47;87331.09;;;17.63;41.03
21623;BME280;10973;46.706;12.340;2023-05-22T09:19:15;87335.88;;;17.72;41.95
21623;BME280;10973;46.706;12.340;2023-05-22T09:21:42;87339.63;;;17.74;41.25
21623;BME280;10973;46.706;12.340;2023-05-22T09:24:11;87336.00;;;17.85;40.93
21623;BME280;10973;46.706;12.340;2023-05-22T09:26:39;87330.56;;;17.88;39.10
21623;BME280;10973;46.706;12.340;2023-05-22T09:29:07;87337.34;;;17.93;39.43
21623;BME280;10973;46.706;12.340;2023-05-22T09:31:42;87339.75;;;17.87;38.32
21623;BME280;10973;46.706;12.340;2023-05-22T09:34:11;87339.28;;;17.92;38.69
21623;BME280;10973;46.706;12.340;2023-05-22T09:36:39;87335.31;;;17.80;37.49
21623;BME280;10973;46.706;12.340;2023-05-22T09:39:07;87325.94;;;17.92;36.64
21623;BME280;10973;46.706;12.340;2023-05-22T09:41:37;87330.69;;;18.01;38.24
21623;BME280;10973;46.706;12.340;2023-05-22T09:44:15;87331.28;;;18.08;37.36
21623;BME280;10973;46.706;12.340;2023-05-22T09:46:46;87316.97;;;18.18;36.72
21623;BME280;10973;46.706;12.340;2023-05-22T09:49:14;87318.47;;;18.19;35.75
21623;BME280;10973;46.706;12.340;2023-05-22T09:51:45;87325.88;;;18.28;37.44
21623;BME280;10973;46.706;12.340;2023-05-22T09:54:14;87319.47;;;18.41;36.95
21623;BME280;10973;46.706;12.340;2023-05-22T09:56:43;87316.50;;;18.56;38.31
21623;BME280;10973;46.706;12.340;2023-05-22T09:59:20;87318.56;;;18.64;36.54
21623;BME280;10973;46.706;12.340;2023-05-22T10:01:49;87315.56;;;18.78;35.72
21623;BME280;10973;46.706;12.340;2023-05-22T10:04:17;87317.13;;;18.92;35.94
21623;BME280;10973;46.706;12.340;2023-05-22T10:06:53;87308.50;;;19.00;35.62
21623;BME280;10973;46.706;12.340;2023-05-22T10:09:26;87299.28;;;19.01;35.71
21623;BME280;10973;46.706;12.340;2023-05-22T10:12:01;87302.53;;;19.09;37.54
21623;BME280;10973;46.706;12.340;2023-05-22T10:14:29;87310.28;;;19.19;36.75
21623;BME280;10973;46.706;12.340;2023-05-22T10:16:58;87304.09;;;19.22;34.59
21623;BME280;10973;46.706;12.340;2023-05-22T10:19:27;87299.72;;;19.29;34.78
21623;BME280;10973;46.706;12.340;2023-05-22T10:21:55;87294.97;;;19.36;35.06
21623;BME280;10973;46.706;12.340;2023-05-22T10:24:26;87294.44;;;19.41;35.80
21623;BME280;10973;46.706;12.340;2023-05-22T10:26:55;87293.06;;;19.49;35.16
21623;BME280;10973;46.706;12.340;2023-05-22T10:29:53;87293.19;;;19.58;36.09
21623;BME280;10973;46.706;12.340;2023-05-22T10:37:53;87288.72;;;19.55;35.78
21623;BME280;10973;46.706;12.340;2023-05-22T10:40:32;87291.91;;;19.50;36.22
21623;BME280;10973;46.706;12.340;2023-05-22T10:43:02;87282.69;;;19.51;36.98
21623;BME280;10973;46.706;12.340;2023-05-22T10:45:30;87287.44;;;19.60;38.43
21623;BME280;10973;46.706;12.340;2023-05-22T10:48:06;87278.03;;;19.68;35.70
21623;BME280;10973;46.706;12.340;2023-05-22T10:50:38;87288.31;;;19.82;36.30
21623;BME280;10973;46.706;12.340;2023-05-22T10:53:26;87283.09;;;19.91;36.40
21623;BME280;10973;46.706;12.340;2023-05-22T10:56:07;87279.56;;;20.07;35.51
21623;BME280;10973;46.706;12.340;2023-05-22T10:58:37;87269.94;;;20.22;35.60
21623;BME280;10973;46.706;12.340;2023-05-22T11:01:25;87278.28;;;20.36;35.33
21623;BME280;10973;46.706;12.340;2023-05-22T11:07:02;87265.53;;;20.53;35.36
21623;BME280;10973;46.706;12.340;2023-05-22T11:09:39;87273.25;;;20.51;34.15
21623;BME280;10973;46.706;12.340;2023-05-22T11:12:29;87272.91;;;20.49;33.55
21623;BME280;10973;46.706;12.340;2023-05-22T11:17:47;87266.97;;;20.32;35.14
21623;BME280;10973;46.706;12.340;2023-05-22T11:20:20;87262.56;;;20.26;33.56
21623;BME280;10973;46.706;12.340;2023-05-22T11:23:04;87262.34;;;20.33;32.77
21623;BME280;10973;46.706;12.340;2023-05-22T11:25:36;87262.69;;;20.35;33.50
21623;BME280;10973;46.706;12.340;2023-05-22T11:28:06;87260.50;;;20.55;32.55
21623;BME280;10973;46.706;12.340;2023-05-22T11:30:35;87253.81;;;20.72;33.17
21623;BME280;10973;46.706;12.340;2023-05-22T11:33:04;87252.72;;;20.82;31.85
21623;BME280;10973;46.706;12.340;2023-05-22T11:35:31;87244.84;;;20.88;32.18
21623;BME280;10973;46.706;12.340;2023-05-22T11:38:04;87250.66;;;20.86;32.51
21623;BME280;10973;46.706;12.340;2023-05-22T11:40:32;87250.22;;;20.88;32.48
21623;BME280;10973;46.706;12.340;2023-05-22T11:43:01;87251.09;;;20.85;33.25
21623;BME280;10973;46.706;12.340;2023-05-22T11:45:28;87256.25;;;20.79;34.23
21623;BME280;10973;46.706;12.340;2023-05-22T11:47:56;87257.00;;;20.80;33.11
21623;BME280;10973;46.706;12.340;2023-05-22T11:50:24;87254.56;;;20.73;34.39
21623;BME280;10973;46.706;12.340;2023-05-22T11:53:08;87258.53;;;20.68;34.34
21623;BME280;10973;46.706;12.340;2023-05-22T11:55:35;87252.31;;;20.71;34.82
21623;BME280;10973;46.706;12.340;2023-05-22T11:58:03;87251.88;;;20.73;34.83
21623;BME280;10973;46.706;12.340;2023-05-22T12:00:30;87260.13;;;20.78;34.74
21623;BME280;10973;46.706;12.340;2023-05-22T12:02:58;87252.56;;;20.98;34.17
21623;BME280;10973;46.706;12.340;2023-05-22T12:05:26;87245.94;;;21.24;35.21
21623;BME280;10973;46.706;12.340;2023-05-22T12:07:53;87243.88;;;21.50;33.47
21623;BME280;10973;46.706;12.340;2023-05-22T12:10:21;87251.78;;;21.75;33.74
21623;BME280;10973;46.706;12.340;2023-05-22T12:12:48;87243.13;;;22.02;32.77
21623;BME280;10973;46.706;12.340;2023-05-22T12:15:19;87244.13;;;22.35;32.78
21623;BME280;10973;46.706;12.340;2023-05-22T12:17:47;87243.75;;;22.55;31.82
21623;BME280;10973;46.706;12.340;2023-05-22T12:20:14;87234.06;;;22.48;29.25
21623;BME280;10973;46.706;12.340;2023-05-22T12:22:42;87236.84;;;22.36;29.23
21623;BME280;10973;46.706;12.340;2023-05-22T12:27:43;87242.00;;;22.12;31.50
21623;BME280;10973;46.706;12.340;2023-05-22T12:30:14;87244.91;;;21.96;32.27
21623;BME280;10973;46.706;12.340;2023-05-22T12:32:47;87244.34;;;21.79;33.23
21623;BME280;10973;46.706;12.340;2023-05-22T12:35:17;87242.47;;;21.67;32.45
21623;BME280;10973;46.706;12.340;2023-05-22T12:37:50;87236.00;;;21.56;32.29
21623;BME280;10973;46.706;12.340;2023-05-22T12:40:18;87241.00;;;21.45;32.60
21623;BME280;10973;46.706;12.340;2023-05-22T12:42:47;87243.19;;;21.37;32.96
21623;BME280;10973;46.706;12.340;2023-05-22T12:45:23;87245.81;;;21.28;33.80
21623;BME280;10973;46.706;12.340;2023-05-22T12:47:51;87238.44;;;21.19;33.81
21623;BME280;10973;46.706;12.340;2023-05-22T12:50:18;87241.81;;;21.11;34.44
21623;BME280;10973;46.706;12.340;2023-05-22T12:52:45;87233.84;;;20.86;33.66
21623;BME280;10973;46.706;12.340;2023-05-22T12:55:13;87232.47;;;20.81;33.79
21623;BME280;10973;46.706;12.340;2023-05-22T12:57:40;87229.84;;;20.90;34.35
21623;BME280;10973;46.706;12.340;2023-05-22T13:00:08;87240.16;;;21.26;35.13
21623;BME280;10973;46.706;12.340;2023-05-22T13:02:36;87235.69;;;21.54;34.74
21623;BME280;10973;46.706;12.340;2023-05-22T13:05:04;87238.16;;;21.91;35.23
21623;BME280;10973;46.706;12.340;2023-05-22T13:07:31;87236.38;;;22.28;35.17
21623;BME280;10973;46.706;12.340;2023-05-22T13:09:59;87237.38;;;22.61;33.19
21623;BME280;10973;46.706;12.340;2023-05-22T13:12:26;87231.91;;;22.92;33.75
21623;BME280;10973;46.706;12.340;2023-05-22T13:14:54;87225.19;;;23.15;31.50
21623;BME280;10973;46.706;12.340;2023-05-22T13:17:22;87216.25;;;23.36;32.11
21623;BME280;10973;46.706;12.340;2023-05-22T13:19:50;87214.44;;;23.60;31.65
21623;BME280;10973;46.706;12.340;2023-05-22T13:22:24;87220.22;;;23.77;31.08
21623;BME280;10973;46.706;12.340;2023-05-22T13:24:51;87215.88;;;23.88;29.53
21623;BME280;10973;46.706;12.340;2023-05-22T13:27:18;87211.69;;;23.96;29.45